Thursday, March 21, 2019, 4:37 PM EDT
Back to Local

KGON, Groton/new London Airport

Location: Groton, CT, United States Lat: 41.333
Local Time: 4:37 PM EDT (20:37 GMT) Lon: -72.05
Time Zone: US/Eastern Elev: 9 ft

Show me the last for .
Show Decoded

2019-03-21 15:56 METAR KGON 211956Z 09012KT 10SM OVC050 07/02 A3003 RMK AO2 SLP169 T00720017 =
2019-03-21 14:56 METAR KGON 211856Z 08010KT 10SM OVC050 07/02 A3006 RMK AO2 SLP180 T00720022 =
2019-03-21 13:56 METAR KGON 211756Z 10012KT 10SM OVC048 08/03 A3009 RMK AO2 SLP188 60000
                 T00780028 10083 20056 56030 =
2019-03-21 12:56 METAR KGON 211656Z 09011KT 10SM OVC046 08/03 A3011 RMK AO2 SLP197 T00780033 =
2019-03-21 11:56 METAR KGON 211556Z 10012G22KT 10SM OVC045 08/03 A3014 RMK AO2 SLP206 T00780033 =
2019-03-21 10:56 METAR KGON 211456Z 10011KT 10SM OVC045 07/03 A3018 RMK AO2 SLP218 60000
                 T00670028 58008 =
2019-03-21 09:56 METAR KGON 211356Z 10011KT 10SM OVC045 07/03 A3018 RMK AO2 RAB13E23 SLP221 P0000
                 T00670033 =
2019-03-21 08:56 METAR KGON 211256Z 10011KT 10SM OVC045 06/03 A3019 RMK AO2 SLP224 T00560028 =
2019-03-21 07:56 METAR KGON 211156Z 11011KT 10SM OVC047 06/02 A3020 RMK AO2 SLP226 T00560022
                 10056 20039 58010 =
2019-03-21 06:56 METAR KGON 211056Z 10010KT 10SM BKN048 OVC060 05/02 A3021 RMK AO2 SLP231
                 T00500022 =
2019-03-21 05:56 METAR KGON 210956Z AUTO 11009KT 10SM FEW055 BKN070 04/02 A3022 RMK AO2 SLP234
                 T00440022 =
2019-03-21 04:56 METAR KGON 210856Z AUTO 11006KT 10SM BKN050 05/02 A3023 RMK AO2 SLP237 T00500017
                 56021 =
2019-03-21 03:56 METAR KGON 210756Z AUTO 12007KT 10SM SCT110 04/01 A3024 RMK AO2 SLP241 T00440011
                 =
2019-03-21 02:56 METAR KGON 210656Z AUTO 14009KT 10SM CLR 05/01 A3027 RMK AO2 SLP250 T00500006 =
2019-03-21 01:56 METAR KGON 210556Z AUTO 15008KT 10SM CLR 05/01 A3029 RMK AO2 SLP257 T00500011
                 10050 20044 56010 =
2019-03-21 00:56 METAR KGON 210456Z 15009KT 10SM CLR 04/02 A3029 RMK AO2 SLP258 T00440017
                 400831044 =
2019-03-20 23:56 METAR KGON 210356Z 17009KT 10SM CLR 05/02 A3032 RMK AO2 SLP265 T00500022 =
2019-03-20 22:56 METAR KGON 210256Z 17007KT 10SM CLR 05/03 A3032 RMK AO2 SLP268 T00500028 58001 =
2019-03-20 21:56 METAR KGON 210156Z 17008KT 10SM CLR 05/03 A3033 RMK AO2 SLP269 T00500028 =
2019-03-20 20:56 METAR KGON 210056Z 19008KT 10SM CLR 04/03 A3034 RMK AO2 SLP272 T00440028 =
2019-03-20 19:56 METAR KGON 202356Z 19009KT 10SM CLR 05/03 A3033 RMK AO2 SLP269 T00500028 10083
                 20050 53000 =
2019-03-20 18:56 METAR KGON 202256Z 18012KT 10SM CLR 05/02 A3033 RMK AO2 SLP269 T00500022 =
2019-03-20 17:56 METAR KGON 202156Z 18012KT 10SM CLR 06/03 A3032 RMK AO2 SLP267 T00610033 =
2019-03-20 16:56 METAR KGON 202056Z 19012KT 10SM CLR 07/02 A3033 RMK AO2 SLP268 T00720017 56012 =

Support USWX by starting your Amazon purchase here.